Latest Weather Observations for Avalon

IDV60801

Issued at 10:34 am EST Monday 21 August 2017 (issued every 30 minutes, with the page automatically refreshed every 10 minutes)

About weather observations | Map of weather stations | Latest weather observations for VIC | Other Formats
Station Details ID: 087113 Name: AVALON AIRPORT Lat: -38.03 Lon: 144.48 Height: 10.6 m
Data from the previous 72 hours. | See also: Recent months at Avalon
Date/Time
EST
Temp
°C
App
Temp
°C
Dew
Point
°C
Rel
Hum
%
Delta-T
°C
Wind Press
QNH
hPa
Press
MSL
hPa
Rain since
9am
mm
Dir  Spd
km/h
Gust
km/h
Spd
kts
Gust
kts
21/10:30am 7.2 1.7 5.8 91 0.6 NNE 24 30 13 16 1016.2 1016.2 0.0
21/10:00am 7.2 2.2 6.3 94 0.4 NE 22 32 12 17 1016.2 1016.2 0.0
21/09:30am 7.1 2.6 6.8 98 0.1 NE 20 26 11 14 1016.5 1016.5 0.0
21/09:00am 6.9 2.3 5.7 92 0.5 NNE 19 22 10 12 1016.5 1016.5 0.2
21/08:30am 6.8 2.5 5.4 91 0.6 NNE 17 22 9 12 1016.6 1016.6 -
21/08:00am 6.8 2.1 5.3 90 0.7 N 19 26 10 14 1016.6 1016.6 -
21/07:30am 6.9 2.8 4.6 85 1.0 N 15 22 8 12 1016.3 1016.3 -
21/07:00am 5.2 2.8 4.3 94 0.4 NNW 6 11 3 6 1016.0 1016.0 -
21/06:30am 5.0 3.7 4.3 95 0.3 CALM 0 0 0 0 1015.7 1015.7 -
21/06:00am 5.1 2.7 4.1 93 0.4 N 6 7 3 4 1015.8 1015.8 -
21/05:30am 5.6 2.6 4.1 90 0.6 NNE 9 11 5 6 1015.6 1015.6 -
21/05:00am 5.4 2.8 4.1 91 0.5 NNE 7 11 4 6 1015.5 1015.5 -
21/04:30am 5.4 2.5 4.5 94 0.4 NE 9 11 5 6 1015.6 1015.6 -
21/04:00am 5.7 2.4 4.3 91 0.6 NE 11 13 6 7 1015.8 1015.8 -
21/03:30am 5.8 2.1 4.6 92 0.5 NNE 13 15 7 8 1016.2 1016.2 -
21/03:00am 5.4 2.2 5.0 97 0.2 NE 11 13 6 7 1016.4 1016.4 0.0
21/02:30am 5.3 2.4 4.9 97 0.2 NE 9 13 5 7 1017.0 1017.0 -
21/02:00am 5.3 2.4 4.7 96 0.3 NE 9 11 5 6 1017.5 1017.5 -
21/01:30am 5.5 3.0 4.8 95 0.3 NNE 7 11 4 6 1017.8 1017.8 -
21/01:00am 5.5 4.3 4.8 95 0.3 CALM 0 0 0 0 1018.1 1018.1 -
21/12:30am 5.1 3.5 4.4 95 0.3 NW 2 9 1 5 1018.3 1018.3 -
21/12:00am 5.1 2.5 4.2 94 0.4 WNW 7 9 4 5 1018.5 1018.5 -
 
Date/Time
EST
Temp
°C
App
Temp
°C
Dew
Point
°C
Rel
Hum
%
Delta-T
°C
Wind Press
QNH
hPa
Press
MSL
hPa
Rain since
9am
mm
Dir  Spd
km/h
Gust
km/h
Spd
kts
Gust
kts
20/11:30pm 5.5 2.8 3.8 89 0.7 N 7 9 4 5 1018.8 1018.8 -
20/11:00pm 5.9 3.0 4.4 90 0.6 NE 9 11 5 6 1018.6 1018.6 -
20/10:30pm 5.5 3.4 4.0 90 0.6 NNW 4 9 2 5 1018.9 1018.9 -
20/10:00pm 5.6 3.0 4.1 90 0.6 WNW 7 9 4 5 1019.2 1019.2 -
20/09:30pm 6.1 3.2 4.6 90 0.6 NNE 9 13 5 7 1018.9 1018.9 -
20/09:00pm 5.5 2.4 3.8 89 0.7 NNE 9 11 5 6 1019.2 1019.2 -
20/08:30pm 6.1 2.8 4.3 88 0.8 NE 11 11 6 6 1019.3 1019.3 -
20/08:00pm 6.3 3.8 3.8 84 1.1 NE 6 7 3 4 1019.5 1019.5 -
20/07:30pm 6.9 4.5 4.2 83 1.2 NE 6 7 3 4 1019.6 1019.6 -
20/07:00pm 7.4 4.1 4.4 81 1.3 ENE 11 13 6 7 1019.9 1019.9 -
20/06:30pm 8.2 5.3 4.6 78 1.6 ENE 9 13 5 7 1019.9 1019.9 -
20/06:00pm 7.6 4.6 4.2 79 1.5 E 9 9 5 5 1020.1 1020.1 -
20/05:30pm 7.3 3.8 3.7 78 1.5 ESE 11 11 6 6 1020.1 1020.1 -
20/05:00pm 9.4 5.7 4.4 71 2.2 ESE 13 19 7 10 1020.2 1020.2 -
20/04:30pm 10.5 5.9 3.8 63 3.0 ESE 17 20 9 11 1020.1 1020.1 0.0
20/04:00pm 11.5 6.2 3.0 56 3.7 ESE 20 24 11 13 1020.5 1020.5 0.0
20/03:30pm 11.0 6.9 4.5 64 2.9 ESE 15 17 8 9 1020.8 1020.8 0.0
20/03:00pm 10.8 5.6 3.4 60 3.2 ESE 20 24 11 13 1021.0 1021.0 0.0
20/02:30pm 11.9 7.0 4.2 59 3.5 ESE 19 24 10 13 1021.4 1021.4 0.0
20/02:00pm 11.5 6.6 4.0 60 3.3 SE 19 22 10 12 1022.2 1022.2 0.0
20/01:30pm 11.9 8.1 3.9 58 3.6 ESE 13 17 7 9 1023.0 1023.0 0.0
20/01:00pm 11.8 7.8 4.8 62 3.2 E 15 19 8 10 1023.5 1023.5 0.0
20/12:30pm 12.2 8.4 1.8 49 4.4 ENE 11 15 6 8 1024.1 1024.1 0.0
20/12:00pm 11.8 8.3 1.4 49 4.4 NW 9 15 5 8 1024.7 1024.7 0.0
20/11:30am 11.7 8.8 2.7 54 3.9 WSW 7 13 4 7 1025.3 1025.3 0.0
20/11:00am 11.0 7.9 3.5 60 3.3 W 9 13 5 7 1025.9 1025.9 0.0
20/10:30am 10.3 7.8 4.5 67 2.6 WNW 7 11 4 6 1026.1 1026.1 0.0
20/10:00am 9.1 5.4 4.3 72 2.1 WNW 13 17 7 9 1026.5 1026.5 0.0
20/09:30am 7.6 3.1 4.0 78 1.6 WNW 17 20 9 11 1026.9 1026.9 0.0
20/09:00am 5.9 1.2 3.4 84 1.0 WNW 17 19 9 10 1027.3 1027.3 1.8
20/08:30am 4.6 0.6 3.1 90 0.6 WNW 13 17 7 9 1027.3 1027.3 1.8
20/08:00am 3.2 -0.8 2.6 96 0.2 WNW 13 17 7 9 1027.3 1027.3 1.8
20/07:30am 2.0 -2.2 1.7 98 0.1 NW 13 15 7 8 1027.1 1027.1 1.8
20/07:00am 1.7 -2.5 1.6 99 0.0 NW 13 15 7 8 1027.0 1027.0 1.8
20/06:30am 1.7 -2.1 1.6 99 0.0 WNW 11 13 6 7 1027.0 1027.0 1.8
20/06:00am 1.9 -1.9 1.8 99 0.0 WNW 11 13 6 7 1026.9 1026.9 1.8
20/05:30am 2.5 -2.3 2.4 99 0.0 NW 17 20 9 11 1026.8 1026.8 1.8
20/05:00am 2.6 -2.6 2.5 99 0.0 WNW 19 20 10 11 1026.8 1026.8 1.8
20/04:30am 2.7 -1.7 2.6 99 0.0 WNW 15 17 8 9 1026.7 1026.7 1.8
20/04:00am 2.4 -1.7 2.3 99 0.0 WNW 13 15 7 8 1026.5 1026.5 1.8
20/03:30am 2.7 -1.0 2.6 99 0.0 NW 11 13 6 7 1026.7 1026.7 1.8
20/03:00am 2.3 -1.4 2.2 99 0.0 NW 11 13 6 7 1026.8 1026.8 1.6
20/02:30am 2.8 -1.2 2.7 99 0.0 WNW 13 15 7 8 1026.8 1026.8 1.6
20/02:00am 3.1 -0.5 3.0 99 0.0 WNW 11 13 6 7 1026.9 1026.9 1.6
20/01:30am 2.6 -0.7 2.5 99 0.0 NW 9 13 5 7 1026.8 1026.8 1.6
20/01:00am 2.2 -1.5 2.1 99 0.0 NNW 11 15 6 8 1027.0 1027.0 1.6
20/12:30am 2.2 -1.6 1.9 98 0.1 NW 11 13 6 7 1027.4 1027.4 1.6
20/12:00am 3.8 -0.5 3.5 98 0.1 NW 15 19 8 10 1028.0 1028.0 1.6
 
Date/Time
EST
Temp
°C
App
Temp
°C
Dew
Point
°C
Rel
Hum
%
Delta-T
°C
Wind Press
QNH
hPa
Press
MSL
hPa
Rain since
9am
mm
Dir  Spd
km/h
Gust
km/h
Spd
kts
Gust
kts
19/11:30pm 4.2 -0.4 3.8 97 0.2 WNW 17 19 9 10 1028.0 1028.0 1.6
19/11:00pm 3.6 -0.3 3.2 97 0.2 WNW 13 15 7 8 1027.9 1027.9 1.6
19/10:30pm 3.7 1.1 3.1 96 0.2 NW 6 9 3 5 1027.7 1027.7 1.6
19/10:00pm 4.1 0.5 3.1 93 0.4 NW 11 11 6 6 1027.8 1027.8 1.6
19/09:30pm 5.0 1.8 3.2 88 0.7 WNW 9 11 5 6 1027.8 1027.8 1.6
19/09:00pm 6.4 3.1 4.6 88 0.8 W 11 11 6 6 1027.8 1027.8 1.6
19/08:30pm 7.2 3.5 4.2 81 1.3 WSW 13 17 7 9 1027.7 1027.7 1.6
19/08:00pm 7.1 3.7 4.2 82 1.2 WSW 11 13 6 7 1027.5 1027.5 1.6
19/07:30pm 7.8 5.0 5.3 84 1.1 SW 9 9 5 5 1027.5 1027.5 1.6
19/07:00pm 7.0 3.4 4.8 86 1.0 SW 13 15 7 8 1027.5 1027.5 1.6
19/06:30pm 7.9 3.5 5.0 82 1.3 SW 17 20 9 11 1027.5 1027.5 1.6
19/06:00pm 7.0 3.2 4.1 82 1.2 SSW 13 13 7 7 1027.3 1027.3 1.6
19/05:30pm 8.8 4.7 4.6 75 1.9 S 15 17 8 9 1027.1 1027.1 1.6
19/05:00pm 9.5 5.4 4.5 71 2.2 S 15 19 8 10 1027.0 1027.0 1.6
19/04:30pm 10.1 5.1 3.8 65 2.8 S 19 26 10 14 1026.7 1026.7 1.6
19/04:00pm 10.0 4.8 3.7 65 2.7 S 20 28 11 15 1026.6 1026.6 1.6
19/03:30pm 11.5 5.5 3.3 57 3.6 S 24 30 13 16 1026.5 1026.5 1.6
19/03:00pm 11.7 5.2 2.7 54 3.9 SSW 26 32 14 17 1026.5 1026.5 1.6
19/02:30pm 12.0 6.0 3.5 56 3.8 SSW 24 32 13 17 1026.5 1026.5 1.6
19/02:00pm 10.9 5.4 3.9 62 3.1 S 22 30 12 16 1026.7 1026.7 1.6
19/01:30pm 11.9 6.5 4.6 61 3.3 S 22 30 12 16 1026.6 1026.6 1.6
19/01:00pm 12.1 7.0 6.2 67 2.8 S 22 30 12 16 1026.7 1026.7 1.6
19/12:30pm 11.1 8.2 6.5 73 2.2 SW 11 20 6 11 1026.7 1026.7 1.6
19/12:00pm 8.7 6.1 6.0 83 1.2 S 9 17 5 9 1026.8 1026.8 1.6
19/11:30am 7.8 2.8 6.3 90 0.7 SSW 22 39 12 21 1027.3 1027.3 0.8
19/11:00am 9.3 6.5 7.1 86 1.0 SW 11 13 6 7 1027.0 1027.0 0.6
19/10:30am 8.9 4.8 6.3 84 1.2 SW 17 26 9 14 1027.1 1027.1 0.2
19/10:00am 8.7 3.8 6.8 88 0.9 W 22 30 12 16 1026.8 1026.8 0.0
19/09:30am 7.2 3.3 6.9 98 0.1 W 17 22 9 12 1026.6 1026.6 0.0
19/09:00am 6.4 2.6 5.8 96 0.3 WNW 15 19 8 10 1026.4 1026.4 9.4
19/08:30am 5.8 2.3 5.5 98 0.1 W 13 17 7 9 1026.1 1026.1 9.4
19/08:00am 5.8 3.1 5.7 99 0.0 W 9 15 5 8 1025.5 1025.5 9.4
19/07:30am 4.5 0.8 4.4 99 0.0 W 13 17 7 9 1025.0 1025.0 9.4
19/07:00am 4.4 -0.5 4.3 99 0.0 W 19 22 10 12 1024.2 1024.2 9.4
19/06:30am 4.6 -0.2 4.5 99 0.0 W 19 22 10 12 1023.9 1023.9 9.4
19/06:00am 4.8 -0.2 4.7 99 0.0 W 20 22 11 12 1023.4 1023.4 9.4
19/05:30am 5.2 0.5 5.1 99 0.0 W 19 22 10 12 1023.0 1023.0 9.4
19/05:00am 5.4 0.2 5.3 99 0.0 W 22 30 12 16 1022.7 1022.7 9.4
19/04:30am 5.1 0.4 5.0 99 0.0 WNW 19 22 10 12 1022.4 1022.4 9.2
19/04:00am 5.8 0.6 5.7 99 0.0 WSW 22 30 12 16 1022.1 1022.1 9.0
19/03:30am 5.2 0.9 5.1 99 0.0 W 17 24 9 13 1022.0 1022.0 8.8
19/03:00am 5.5 1.6 5.4 99 0.0 W 15 24 8 13 1021.9 1021.9 8.8
19/02:30am 5.6 -0.4 5.5 99 0.0 W 26 32 14 17 1021.5 1021.5 8.6
19/02:00am 5.3 1.0 5.2 99 0.0 W 17 22 9 12 1021.6 1021.6 8.4
19/01:30am 6.0 1.8 5.9 99 0.0 W 17 24 9 13 1021.7 1021.7 8.4
19/01:00am 6.0 2.6 5.9 99 0.0 W 13 17 7 9 1021.6 1021.6 7.8
19/12:30am 6.1 2.3 6.0 99 0.0 W 15 17 8 9 1021.1 1021.1 7.6
19/12:00am 6.5 2.0 6.2 98 0.1 WSW 19 28 10 15 1021.2 1021.2 7.4
 
Date/Time
EST
Temp
°C
App
Temp
°C
Dew
Point
°C
Rel
Hum
%
Delta-T
°C
Wind Press
QNH
hPa
Press
MSL
hPa
Rain since
9am
mm
Dir  Spd
km/h
Gust
km/h
Spd
kts
Gust
kts
18/11:30pm 6.6 2.8 5.9 95 0.3 WSW 15 20 8 11 1020.9 1020.9 7.0
18/11:00pm 6.6 1.4 5.7 94 0.4 W 22 32 12 17 1020.7 1020.7 6.8
18/10:30pm 6.5 1.9 5.6 94 0.4 W 19 24 10 13 1020.3 1020.3 6.6
18/10:00pm 6.8 2.0 5.6 92 0.5 W 20 28 11 15 1020.1 1020.1 6.6
18/09:30pm 6.5 1.3 5.6 94 0.4 W 22 26 12 14 1019.5 1019.5 6.6
18/09:00pm 6.7 1.8 5.3 91 0.6 W 20 28 11 15 1019.2 1019.2 6.6
18/08:30pm 7.1 2.8 5.4 89 0.8 W 17 26 9 14 1018.9 1018.9 6.4
18/08:00pm 6.6 1.3 4.8 88 0.8 W 22 28 12 15 1018.4 1018.4 6.4
18/07:30pm 6.9 2.0 4.9 87 0.9 W 20 28 11 15 1017.9 1017.9 6.4
18/07:00pm 6.7 3.0 4.7 87 0.9 W 13 20 7 11 1017.5 1017.5 6.4
18/06:30pm 8.1 3.2 5.2 82 1.3 W 20 30 11 16 1016.8 1016.8 6.4
18/06:00pm 8.6 3.3 5.0 78 1.6 W 22 30 12 16 1016.4 1016.4 6.4
18/05:30pm 9.1 3.4 4.9 75 1.9 WSW 24 37 13 20 1015.7 1015.7 6.4
18/05:00pm 9.1 3.6 6.0 81 1.4 WNW 24 32 13 17 1015.1 1015.1 6.4
18/04:30pm 8.9 2.7 6.0 82 1.3 WNW 28 35 15 19 1014.6 1014.6 6.4
18/04:00pm 9.0 3.1 5.7 80 1.5 W 26 33 14 18 1014.0 1014.0 6.4
18/03:30pm 9.7 2.6 5.7 76 1.8 W 32 50 17 27 1013.4 1013.4 6.4
18/03:22pm 9.9 2.8 5.3 73 2.1 W 32 50 17 27 1013.4 1013.4 6.4
18/03:00pm 10.3 3.8 4.9 69 2.4 W 28 39 15 21 1013.2 1013.2 6.4
18/02:34pm 10.5 2.4 5.1 69 2.5 WSW 37 56 20 30 1012.7 1012.7 6.4
18/02:30pm 10.9 3.3 5.9 71 2.3 WSW 35 46 19 25 1012.7 1012.7 6.4
18/02:00pm 8.8 1.6 5.9 82 1.3 WSW 33 52 18 28 1012.3 1012.3 6.4
18/01:52pm 10.1 3.2 6.4 78 1.7 W 32 52 17 28 1012.0 1012.0 5.6
18/01:30pm 10.5 3.7 7.0 79 1.7 W 32 43 17 23 1011.8 1011.8 5.6
18/01:00pm 9.8 3.1 7.4 85 1.1 W 32 43 17 23 1011.4 1011.4 5.6
18/12:30pm 8.3 1.7 7.9 97 0.2 W 32 43 17 23 1011.4 1011.4 5.6
18/12:20pm 7.0 0.8 6.3 95 0.3 W 28 35 15 19 1011.1 1011.1 5.6
18/12:08pm 6.5 -0.6 5.6 94 0.4 WSW 32 46 17 25 1011.4 1011.4 5.6
18/12:00pm 6.1 -2.0 5.1 93 0.4 SW 37 59 20 32 1011.8 1011.8 4.8
18/11:58am 6.5 -1.6 5.1 91 0.6 SW 37 59 20 32 1011.5 1011.5 4.0
18/11:55am 7.1 -0.2 5.3 88 0.8 SW 33 50 18 27 1011.3 1011.3 2.0
18/11:40am 10.6 3.6 6.2 74 2.0 W 32 50 17 27 1010.8 1010.8 0.0
18/11:30am 10.3 2.3 5.7 73 2.1 W 37 50 20 27 1010.6 1010.6 0.0
18/11:00am 10.6 1.5 6.0 73 2.1 W 43 57 23 31 1010.4 1010.4 0.0

Other Formats:

Comma delimited format used in spreadsheet applications
http://www.bom.gov.au/fwo/IDV60801/IDV60801.94854.axf

JavaScript Object Notation format (JSON) in row-major order
http://www.bom.gov.au/fwo/IDV60801/IDV60801.94854.json